Point Of Ayre, Isle of Man
Current Conditions -  °F | °C
As of 2:50 AM on Sunday 26 Oct 2014 (Local Time) from EGNS Reporting Station
Few Clouds Few Clouds  
Wind Chill: 57°   Ceiling: Unl
Heat Index: 57°   Visibility: 6mi
Dew Point: 46°   Wind: 28mph
Humidity: 67%   Direction: 230°SW
Pressure: 29.85"   Gusts: 40mph
Location:  54.42°N, 4.37°W
Report Text: EGNS 260150Z 23024G35KT 190V260 9999 FEW023 14/08 Q1011
Loading
Personal Weather Stations






























Interactive Weather Map
Tropical Storm Tracking
New forecast layout! Learn more

10-Day Weather Forecast

Advertisements
Track Severe Weather on mobile